createdAt,value
2023-12-26T00:03:31.334Z,34.00
2023-12-26T00:06:00.000Z,32.88
2023-12-26T00:08:28.471Z,34.88
2023-12-26T00:10:56.967Z,34.17
2023-12-26T00:13:25.216Z,31.95
2023-12-26T00:15:53.574Z,32.72
2023-12-26T00:18:22.277Z,33.50
2023-12-26T00:20:50.640Z,31.63
2023-12-26T00:23:19.104Z,33.05
2023-12-26T00:25:47.485Z,36.42
2023-12-26T00:28:15.866Z,29.13
2023-12-26T00:30:44.377Z,28.23
2023-12-26T00:33:12.946Z,32.60
2023-12-26T00:35:44.362Z,29.17
2023-12-26T00:38:14.941Z,30.65
2023-12-26T00:43:11.659Z,26.48
2023-12-26T00:45:39.944Z,29.73
2023-12-26T00:48:09.167Z,28.45
2023-12-26T00:50:38.101Z,25.95
2023-12-26T00:55:34.692Z,27.30
2023-12-26T00:58:03.821Z,27.13
2023-12-26T01:00:32.195Z,25.20
2023-12-26T01:03:00.578Z,28.33
2023-12-26T01:05:28.987Z,29.55
2023-12-26T01:07:57.339Z,26.10
2023-12-26T01:10:25.677Z,29.38
2023-12-26T01:12:54.529Z,23.33
2023-12-26T01:15:23.504Z,24.58
2023-12-26T01:17:53.902Z,26.40
2023-12-26T01:20:22.684Z,26.42
2023-12-26T01:22:50.906Z,24.10
2023-12-26T01:25:19.375Z,31.40
2023-12-26T01:27:47.856Z,21.98
2023-12-26T01:30:16.585Z,22.63
2023-12-26T01:32:45.194Z,24.27
2023-12-26T01:35:14.431Z,24.75
2023-12-26T01:37:43.674Z,23.58
2023-12-26T01:40:12.484Z,24.00
2023-12-26T01:42:43.438Z,26.02
2023-12-26T01:45:12.673Z,25.90
2023-12-26T01:47:42.501Z,24.38
2023-12-26T01:50:12.197Z,21.75
2023-12-26T01:52:40.816Z,21.80
2023-12-26T01:55:10.450Z,21.90
2023-12-26T01:57:38.868Z,21.15
2023-12-26T02:00:10.555Z,22.70
2023-12-26T02:02:44.823Z,23.70
2023-12-26T02:05:15.893Z,22.60
2023-12-26T02:07:44.597Z,24.08
2023-12-26T02:10:13.902Z,24.70
2023-12-26T02:12:42.374Z,24.38
2023-12-26T02:15:11.447Z,22.20
2023-12-26T02:17:40.413Z,21.15
2023-12-26T02:20:09.656Z,22.23
2023-12-26T02:22:38.106Z,18.60
2023-12-26T02:25:09.588Z,19.58
2023-12-26T02:27:39.213Z,21.70
2023-12-26T02:30:10.224Z,23.52
2023-12-26T02:32:43.735Z,25.08
2023-12-26T02:35:12.637Z,20.90
2023-12-26T02:37:41.556Z,19.42
2023-12-26T02:40:10.254Z,18.33
2023-12-26T02:42:38.697Z,21.75
2023-12-26T02:45:07.939Z,15.90
2023-12-26T02:47:36.475Z,18.88
2023-12-26T02:52:33.194Z,21.23
2023-12-26T02:55:01.555Z,19.88
2023-12-26T02:57:29.873Z,17.45
2023-12-26T02:59:58.390Z,21.10
2023-12-26T03:02:26.713Z,20.63
2023-12-26T03:04:55.044Z,13.60
2023-12-26T03:07:23.514Z,19.23
2023-12-26T03:09:51.810Z,18.27
2023-12-26T03:12:20.278Z,18.65
2023-12-26T03:14:48.631Z,13.75
2023-12-26T03:17:16.876Z,19.63
2023-12-26T03:19:45.488Z,12.68
2023-12-26T03:24:41.925Z,16.88
2023-12-26T03:27:10.347Z,15.68
2023-12-26T03:29:38.891Z,14.88
2023-12-26T03:32:08.670Z,13.40
2023-12-26T03:34:39.079Z,16.85
2023-12-26T03:37:07.713Z,14.65
2023-12-26T03:39:35.949Z,16.45
2023-12-26T03:42:04.514Z,16.15
2023-12-26T03:47:01.049Z,14.00
2023-12-26T03:49:29.783Z,15.60
2023-12-26T03:51:58.495Z,19.23
2023-12-26T03:54:26.930Z,16.55
2023-12-26T03:56:55.258Z,15.98
2023-12-26T03:59:23.587Z,15.52
2023-12-26T04:01:51.973Z,15.98
2023-12-26T04:04:20.518Z,14.05
2023-12-26T04:06:49.175Z,15.82
2023-12-26T04:09:17.608Z,11.60
2023-12-26T04:11:46.397Z,14.40
2023-12-26T04:14:14.986Z,12.65
2023-12-26T04:16:43.825Z,15.02
2023-12-26T04:19:12.527Z,14.70
2023-12-26T04:24:10.996Z,11.52
2023-12-26T04:29:07.768Z,13.85
2023-12-26T04:31:38.738Z,16.77
2023-12-26T04:34:07.309Z,13.23
2023-12-26T04:36:36.752Z,12.48
2023-12-26T04:39:05.708Z,13.60
2023-12-26T04:41:34.397Z,11.77
2023-12-26T04:44:03.095Z,13.27
2023-12-26T04:46:31.538Z,10.88
2023-12-26T04:49:00.110Z,14.23
2023-12-26T04:51:28.595Z,13.27
2023-12-26T04:53:57.055Z,11.80
2023-12-26T04:56:26.054Z,14.32
2023-12-26T05:01:22.871Z,11.80
2023-12-26T05:03:51.215Z,12.27
2023-12-26T05:06:23.188Z,11.88
2023-12-26T05:08:51.652Z,10.77
2023-12-26T05:11:24.524Z,12.10
2023-12-26T05:13:53.380Z,9.38
2023-12-26T05:16:22.654Z,12.38
2023-12-26T05:18:51.208Z,10.77
2023-12-26T05:21:24.324Z,11.82
2023-12-26T05:23:52.812Z,10.20
2023-12-26T05:26:21.163Z,10.90
2023-12-26T05:28:50.331Z,12.05
2023-12-26T05:33:51.001Z,12.13
2023-12-26T05:36:19.532Z,8.15
2023-12-26T05:38:47.969Z,10.25
2023-12-26T05:41:16.450Z,12.55
2023-12-26T05:43:45.163Z,12.52
2023-12-26T05:46:13.678Z,11.13
2023-12-26T05:48:45.560Z,8.90
2023-12-26T05:51:14.640Z,7.68
2023-12-26T05:56:11.188Z,14.45
2023-12-26T05:58:41.321Z,13.60
2023-12-26T06:01:12.983Z,9.85
2023-12-26T06:03:41.756Z,12.50
2023-12-26T06:06:13.734Z,11.38
2023-12-26T06:08:43.253Z,11.18
2023-12-26T06:11:12.033Z,9.25
2023-12-26T06:13:41.077Z,10.80
2023-12-26T06:21:06.657Z,13.02
2023-12-26T06:23:35.025Z,10.32
2023-12-26T06:26:05.738Z,10.23
2023-12-26T06:28:35.564Z,10.52
2023-12-26T06:31:03.988Z,8.82
2023-12-26T06:33:32.525Z,9.75
2023-12-26T06:38:29.053Z,10.02
2023-12-26T06:40:59.152Z,11.20
2023-12-26T06:43:27.605Z,10.90
2023-12-26T06:45:56.072Z,13.75
2023-12-26T06:48:25.408Z,12.13
2023-12-26T06:53:21.865Z,13.88
2023-12-26T06:55:50.704Z,13.52
2023-12-26T06:58:19.175Z,9.88
2023-12-26T07:00:48.137Z,18.88
2023-12-26T07:03:16.706Z,11.52
2023-12-26T07:08:13.523Z,17.95
2023-12-26T07:10:41.916Z,17.95
2023-12-26T07:13:10.203Z,15.20
2023-12-26T07:15:38.490Z,14.27
2023-12-26T07:18:07.035Z,23.80
2023-12-26T07:23:03.464Z,20.48
2023-12-26T07:25:31.798Z,21.38
2023-12-26T07:28:00.206Z,17.15
2023-12-26T07:30:28.477Z,21.70
2023-12-26T07:32:57.324Z,24.95
2023-12-26T07:36:55.721Z,21.23
2023-12-26T07:41:52.604Z,19.13
2023-12-26T07:44:21.362Z,25.52
2023-12-26T07:46:49.660Z,20.75
2023-12-26T07:49:18.243Z,18.75
2023-12-26T07:51:46.561Z,18.27
2023-12-26T07:54:15.064Z,16.10
2023-12-26T07:56:43.441Z,19.00
2023-12-26T07:59:12.008Z,15.60
2023-12-26T08:01:40.649Z,18.13
2023-12-26T08:04:09.120Z,22.23
2023-12-26T08:06:37.519Z,19.50
2023-12-26T08:09:06.249Z,24.95
2023-12-26T08:11:34.591Z,18.48
2023-12-26T08:14:03.036Z,22.70
2023-12-26T08:16:31.411Z,23.58
2023-12-26T08:21:28.281Z,20.00
2023-12-26T08:23:56.788Z,25.48
2023-12-26T08:26:34.717Z,20.98
2023-12-26T08:29:03.234Z,20.30
2023-12-26T08:31:31.848Z,20.40
2023-12-26T08:34:00.323Z,22.25
2023-12-26T08:36:29.084Z,19.17
2023-12-26T08:41:25.471Z,23.23
2023-12-26T08:43:53.941Z,21.02
2023-12-26T08:46:22.328Z,21.13
2023-12-26T08:48:50.779Z,22.80
2023-12-26T08:53:50.033Z,22.20
2023-12-26T08:56:18.774Z,20.20
2023-12-26T08:58:46.988Z,26.80
2023-12-26T09:01:15.350Z,18.80
2023-12-26T09:03:43.732Z,20.90
2023-12-26T09:06:17.366Z,20.85
2023-12-26T09:08:45.846Z,21.33
2023-12-26T09:11:14.725Z,22.75
2023-12-26T09:13:44.472Z,21.75
2023-12-26T09:16:12.996Z,20.50
2023-12-26T09:21:09.894Z,20.75
2023-12-26T09:23:38.405Z,24.15
2023-12-26T09:26:07.047Z,18.58
2023-12-26T09:28:35.252Z,20.33
2023-12-26T09:31:03.972Z,22.38
2023-12-26T09:33:32.275Z,20.70
2023-12-26T09:36:00.829Z,19.13
2023-12-26T09:38:29.338Z,22.92
2023-12-26T09:40:57.847Z,18.00
2023-12-26T09:45:54.423Z,23.67
2023-12-26T09:48:23.004Z,21.95
2023-12-26T09:50:56.338Z,20.48
2023-12-26T09:53:25.723Z,19.27
2023-12-26T09:55:55.165Z,19.80
2023-12-26T09:58:23.562Z,22.70
2023-12-26T10:00:52.914Z,22.60
2023-12-26T10:03:21.600Z,20.95
2023-12-26T10:05:50.020Z,23.52
2023-12-26T10:08:18.351Z,20.30
2023-12-26T10:10:46.803Z,23.77
2023-12-26T10:13:14.995Z,29.65
2023-12-26T10:15:46.039Z,26.25
2023-12-26T10:18:14.680Z,20.08
2023-12-26T10:23:13.242Z,24.48
2023-12-26T10:25:44.338Z,24.20
2023-12-26T10:28:17.590Z,25.48
2023-12-26T10:30:45.950Z,24.35
2023-12-26T10:33:26.169Z,21.67
2023-12-26T10:36:09.672Z,18.27
2023-12-26T10:38:38.830Z,22.40
2023-12-26T10:41:22.995Z,25.65
2023-12-26T10:43:54.621Z,19.88
2023-12-26T10:46:23.346Z,23.20
2023-12-26T10:48:59.044Z,18.90
2023-12-26T10:51:29.878Z,21.63
2023-12-26T10:54:21.945Z,21.88
2023-12-26T10:56:50.697Z,23.27
2023-12-26T11:03:02.716Z,25.58
2023-12-26T11:06:27.692Z,21.95
2023-12-26T11:09:51.738Z,23.25
2023-12-26T11:13:15.994Z,23.92
2023-12-26T11:16:40.184Z,22.77
2023-12-26T11:20:04.100Z,22.45
2023-12-26T11:23:27.708Z,23.65
2023-12-26T11:26:51.450Z,20.83
2023-12-26T11:30:15.375Z,26.20
2023-12-26T11:33:41.383Z,24.10
2023-12-26T11:37:12.435Z,26.98
2023-12-26T11:40:36.056Z,17.33
2023-12-26T11:43:59.806Z,20.40
2023-12-26T11:49:22.023Z,22.88
2023-12-26T11:52:48.259Z,25.63
2023-12-26T11:56:12.977Z,22.77
2023-12-26T11:59:37.489Z,20.75
2023-12-26T12:03:02.730Z,25.80
2023-12-26T12:06:29.836Z,20.90
2023-12-26T12:09:54.220Z,23.38
2023-12-26T12:13:17.722Z,23.70
2023-12-26T12:16:41.851Z,25.23
2023-12-26T12:20:06.138Z,22.42
2023-12-26T12:23:29.796Z,21.15
2023-12-26T12:26:54.296Z,23.75
2023-12-26T12:30:18.668Z,21.25
2023-12-26T12:33:42.897Z,28.13
2023-12-26T12:37:07.086Z,21.45
2023-12-26T12:40:31.671Z,24.08
2023-12-26T12:43:55.713Z,30.13
2023-12-26T12:47:26.828Z,23.10
2023-12-26T12:50:50.608Z,24.27
2023-12-26T12:54:14.892Z,25.95
2023-12-26T12:57:39.317Z,28.00
2023-12-26T13:01:03.918Z,20.85
2023-12-26T13:04:28.521Z,25.20
2023-12-26T13:07:52.475Z,21.73
2023-12-26T13:11:16.289Z,28.73
2023-12-26T13:14:40.616Z,25.90
2023-12-26T13:18:05.016Z,24.67
2023-12-26T13:21:29.120Z,23.30
2023-12-26T13:24:53.293Z,26.02
2023-12-26T13:28:17.408Z,24.98
2023-12-26T13:31:41.266Z,27.33
2023-12-26T13:35:04.852Z,22.13
2023-12-26T13:38:28.582Z,27.65
2023-12-26T13:41:52.234Z,27.80
2023-12-26T13:45:16.432Z,25.63
2023-12-26T13:48:47.909Z,29.08
2023-12-26T13:52:12.013Z,21.40
2023-12-26T13:55:17.552Z,24.00
2023-12-26T13:58:23.183Z,23.17
2023-12-26T14:01:29.141Z,21.25
2023-12-26T14:04:37.943Z,23.33
2023-12-26T14:07:45.779Z,30.58
2023-12-26T14:10:51.507Z,19.80
2023-12-26T14:13:57.384Z,27.45
2023-12-26T14:17:02.924Z,23.45
2023-12-26T14:20:08.537Z,26.58
2023-12-26T14:23:14.510Z,24.65
2023-12-26T14:26:20.141Z,24.00
2023-12-26T14:29:27.149Z,29.02
2023-12-26T14:32:34.406Z,24.33
2023-12-26T14:35:39.952Z,28.15
2023-12-26T14:38:45.774Z,30.13
2023-12-26T14:41:51.278Z,24.25
2023-12-26T14:44:57.223Z,31.27
2023-12-26T14:47:25.964Z,23.30
2023-12-26T14:52:26.369Z,19.65
2023-12-26T14:54:54.714Z,22.20
2023-12-26T14:57:23.205Z,19.63
2023-12-26T14:59:51.634Z,25.42
2023-12-26T15:02:20.029Z,24.95
2023-12-26T15:04:48.592Z,27.02
2023-12-26T15:07:16.970Z,21.85
2023-12-26T15:09:45.332Z,22.65
2023-12-26T15:12:13.771Z,25.30
2023-12-26T15:14:44.118Z,21.55
2023-12-26T15:17:13.859Z,21.00
2023-12-26T15:22:11.387Z,20.90
2023-12-26T15:24:39.790Z,23.95
2023-12-26T15:29:37.391Z,21.50
2023-12-26T15:32:06.124Z,21.65
2023-12-26T15:34:34.844Z,21.25
2023-12-26T15:37:03.253Z,24.20
2023-12-26T15:39:31.818Z,26.80
2023-12-26T15:42:00.344Z,25.48
2023-12-26T15:44:28.615Z,21.90
2023-12-26T15:46:57.125Z,24.13
2023-12-26T15:49:25.582Z,22.83
2023-12-26T15:51:53.991Z,21.48
2023-12-26T15:54:22.547Z,22.10
2023-12-26T15:59:19.130Z,23.60
2023-12-26T16:01:48.239Z,27.30
2023-12-26T16:04:17.318Z,25.02
2023-12-26T16:06:45.806Z,21.30
2023-12-26T16:11:45.229Z,24.60
2023-12-26T16:14:13.734Z,21.63
2023-12-26T16:16:42.617Z,22.27
2023-12-26T16:19:11.523Z,21.02
2023-12-26T16:21:40.228Z,25.90
2023-12-26T16:24:09.018Z,23.95
2023-12-26T16:26:41.276Z,19.38
2023-12-26T16:29:10.644Z,20.35
2023-12-26T16:31:39.117Z,21.33
2023-12-26T16:39:04.681Z,22.58
2023-12-26T16:44:01.789Z,18.67
2023-12-26T16:46:33.990Z,21.70
2023-12-26T16:49:04.997Z,22.88
2023-12-26T16:51:33.513Z,22.92
2023-12-26T16:54:01.968Z,21.50
2023-12-26T16:56:30.556Z,27.40
2023-12-26T16:59:01.779Z,22.35
2023-12-26T17:01:30.173Z,22.05
2023-12-26T17:03:58.745Z,24.98
2023-12-26T17:06:27.161Z,20.33
2023-12-26T17:08:55.829Z,17.58
2023-12-26T17:11:24.219Z,22.88
2023-12-26T17:13:52.567Z,22.58
2023-12-26T17:16:21.122Z,22.85
2023-12-26T17:18:49.473Z,20.25
2023-12-26T17:21:18.126Z,24.13
2023-12-26T17:23:46.645Z,23.33
2023-12-26T17:26:15.444Z,25.55
2023-12-26T17:31:12.325Z,21.73
2023-12-26T17:33:40.953Z,21.83
2023-12-26T17:36:09.409Z,20.23
2023-12-26T17:38:37.906Z,18.42
2023-12-26T17:41:06.361Z,21.40
2023-12-26T17:43:34.706Z,20.40
2023-12-26T17:46:03.223Z,28.48
2023-12-26T17:51:00.061Z,27.13
2023-12-26T17:53:28.716Z,24.35
2023-12-26T17:55:56.955Z,24.35
2023-12-26T17:58:25.331Z,26.05
2023-12-26T18:00:53.724Z,24.75
2023-12-26T18:03:22.263Z,20.67
2023-12-26T18:05:51.187Z,20.67
2023-12-26T18:08:20.226Z,22.83
2023-12-26T18:10:48.472Z,22.42
2023-12-26T18:13:16.926Z,26.23
2023-12-26T18:15:45.320Z,23.58
2023-12-26T18:18:13.889Z,21.02
2023-12-26T18:20:42.255Z,25.80
2023-12-26T18:23:10.853Z,21.02
2023-12-26T18:25:39.122Z,23.60
2023-12-26T18:28:07.761Z,29.50
2023-12-26T18:30:36.260Z,22.10
2023-12-26T18:33:08.057Z,25.35
2023-12-26T18:35:36.934Z,26.42
2023-12-26T18:40:33.341Z,22.85
2023-12-26T18:43:01.830Z,29.00
2023-12-26T18:45:30.192Z,22.75
2023-12-26T18:47:59.094Z,18.45
2023-12-26T18:50:27.714Z,24.10
2023-12-26T18:52:56.067Z,22.27
2023-12-26T18:55:24.350Z,24.48
2023-12-26T18:57:52.794Z,21.70
2023-12-26T19:00:21.236Z,20.77
2023-12-26T19:02:49.644Z,23.10
2023-12-26T19:05:18.075Z,23.65
2023-12-26T19:07:50.058Z,21.35
2023-12-26T19:10:18.581Z,20.92
2023-12-26T19:12:51.286Z,26.33
2023-12-26T19:15:19.868Z,23.58
2023-12-26T19:17:48.250Z,21.58
2023-12-26T19:20:16.697Z,28.98
2023-12-26T19:22:45.234Z,19.50
2023-12-26T19:27:41.787Z,26.67
2023-12-26T19:30:11.049Z,26.40
2023-12-26T19:32:39.416Z,25.50
2023-12-26T19:35:10.981Z,26.02
2023-12-26T19:37:40.345Z,30.73
2023-12-26T19:40:09.256Z,27.85
2023-12-26T19:42:37.800Z,25.33
2023-12-26T19:47:34.715Z,20.80
2023-12-26T19:52:31.207Z,32.22
2023-12-26T19:54:59.642Z,31.88
2023-12-26T19:57:28.627Z,27.17
2023-12-26T19:59:57.304Z,26.30
2023-12-26T20:04:53.663Z,27.80
2023-12-26T20:10:03.765Z,29.77
2023-12-26T20:12:32.382Z,22.90
2023-12-26T20:15:00.884Z,24.50
2023-12-26T20:17:29.524Z,31.58
2023-12-26T20:19:58.181Z,26.02
2023-12-26T20:22:27.833Z,33.63
2023-12-26T20:24:56.381Z,27.85
2023-12-26T20:27:24.802Z,29.67
2023-12-26T20:29:53.077Z,29.30
2023-12-26T20:32:23.627Z,30.55
2023-12-26T20:34:53.016Z,32.10
2023-12-26T20:37:21.244Z,28.67
2023-12-26T20:39:49.668Z,25.13
2023-12-26T20:42:17.999Z,28.92
2023-12-26T20:44:46.619Z,30.73
2023-12-26T20:47:15.396Z,26.38
2023-12-26T20:49:43.795Z,27.70
2023-12-26T20:52:13.057Z,32.40
2023-12-26T20:54:41.553Z,30.90
2023-12-26T20:57:09.846Z,26.33
2023-12-26T20:59:38.201Z,34.10
2023-12-26T21:02:07.247Z,32.25
2023-12-26T21:04:35.668Z,33.30
2023-12-26T21:07:04.071Z,29.45
2023-12-26T21:09:32.470Z,28.60
2023-12-26T21:12:00.976Z,28.13
2023-12-26T21:14:29.297Z,25.30
2023-12-26T21:17:02.091Z,26.40
2023-12-26T21:19:35.707Z,27.77
2023-12-26T21:22:06.272Z,27.13
2023-12-26T21:24:34.677Z,30.63
2023-12-26T21:27:03.146Z,29.05
2023-12-26T21:29:31.681Z,26.65
2023-12-26T21:31:59.857Z,29.08
2023-12-26T21:34:28.300Z,22.80
2023-12-26T21:36:56.785Z,27.48
2023-12-26T21:39:25.105Z,25.83
2023-12-26T21:41:53.512Z,25.77
2023-12-26T21:44:22.086Z,28.13
2023-12-26T21:46:50.381Z,28.35
2023-12-26T21:49:18.839Z,28.42
2023-12-26T21:51:47.546Z,28.98
2023-12-26T21:54:15.918Z,27.08
2023-12-26T21:56:47.178Z,28.17
2023-12-26T21:59:16.013Z,26.48
2023-12-26T22:01:44.631Z,37.42
2023-12-26T22:04:15.186Z,20.30
2023-12-26T22:06:48.113Z,23.92
2023-12-26T22:09:16.769Z,26.83
2023-12-26T22:14:13.380Z,24.42
2023-12-26T22:16:41.818Z,24.33
2023-12-26T22:19:10.161Z,30.05
2023-12-26T22:21:42.936Z,24.88
2023-12-26T22:24:11.290Z,27.65
2023-12-26T22:26:43.581Z,24.52
2023-12-26T22:29:12.179Z,30.75
2023-12-26T22:31:40.497Z,28.65
2023-12-26T22:34:12.940Z,26.13
2023-12-26T22:36:41.766Z,27.00
2023-12-26T22:39:10.037Z,23.30
2023-12-26T22:41:38.563Z,21.85
2023-12-26T22:44:06.783Z,25.23
2023-12-26T22:46:35.118Z,27.10
2023-12-26T22:49:03.497Z,22.15
2023-12-26T22:51:31.967Z,21.13
2023-12-26T22:54:00.301Z,25.65
2023-12-26T22:56:29.104Z,22.25
2023-12-26T22:58:57.295Z,22.33
2023-12-26T23:01:25.691Z,24.98
2023-12-26T23:03:54.141Z,23.75
2023-12-26T23:08:50.568Z,21.70
2023-12-26T23:11:24.641Z,21.95
2023-12-26T23:13:52.938Z,23.33
2023-12-26T23:16:21.164Z,19.80
2023-12-26T23:18:49.780Z,21.60
2023-12-26T23:21:19.129Z,25.10
2023-12-26T23:23:47.499Z,22.10
2023-12-26T23:26:22.955Z,18.35
2023-12-26T23:28:51.962Z,20.08
2023-12-26T23:33:48.625Z,22.50
2023-12-26T23:38:47.367Z,16.23
2023-12-26T23:41:15.927Z,25.15
2023-12-26T23:43:44.144Z,21.00
2023-12-26T23:46:13.264Z,16.60
2023-12-26T23:48:42.156Z,20.83
2023-12-26T23:51:11.737Z,19.38
2023-12-26T23:53:39.954Z,22.80
2023-12-26T23:56:08.693Z,18.75
2023-12-26T23:58:36.936Z,19.67
